Wetterdaten: Woche 07.12.09 - 13.12.09 (KW50)
Datum Zeit Temp. A. Feuchte A. Luftdruck Regen Wind Richtung Taupunkt Windchill Windben
07.12.2009 00:00 1,8 C 91 % 1016,1 hPa 0,0 l/m 0,2 km/h N 0,6 C 1,8 C 3,6 km/h
07.12.2009 01:00 1,8 C 92 % 1016,3 hPa 0,0 l/m 0,2 km/h N 0,6 C 1,8 C 2,0 km/h
07.12.2009 02:00 1,7 C 92 % 1016,6 hPa 0,0 l/m 0,2 km/h N 0,6 C 1,7 C 2,4 km/h
07.12.2009 03:00 1,8 C 92 % 1016,9 hPa 0,0 l/m 0,2 km/h N 0,7 C 1,8 C 3,2 km/h
07.12.2009 04:00 2,0 C 92 % 1017,0 hPa 0,3 l/m 0,0 km/h N 0,8 C 2,0 C 0,0 km/h
07.12.2009 05:00 2,1 C 92 % 1017,1 hPa 0,3 l/m 0,0 km/h N 0,9 C 2,1 C 0,8 km/h
07.12.2009 06:00 2,3 C 92 % 1017,2 hPa 0,0 l/m 0,0 km/h N 1,1 C 2,3 C 0,8 km/h
07.12.2009 07:00 2,4 C 92 % 1017,5 hPa 0,0 l/m 0,0 km/h N 1,2 C 2,4 C 1,2 km/h
07.12.2009 08:00 2,5 C 93 % 1017,7 hPa 0,0 l/m 0,1 km/h N 1,5 C 2,5 C 3,2 km/h
07.12.2009 09:00 2,9 C 93 % 1018,0 hPa 0,0 l/m 0,2 km/h N 1,8 C 2,9 C 2,8 km/h
07.12.2009 10:00 3,6 C 93 % 1018,0 hPa 0,0 l/m 0,1 km/h N 2,6 C 3,6 C 2,8 km/h
07.12.2009 11:00 3,9 C 92 % 1017,9 hPa 0,0 l/m 0,2 km/h N 2,7 C 3,9 C 3,2 km/h
07.12.2009 12:00 4,3 C 91 % 1017,7 hPa 0,0 l/m 0,5 km/h N 3,0 C 4,3 C 4,8 km/h
07.12.2009 13:00 4,7 C 89 % 1017,7 hPa 0,0 l/m 0,4 km/h N 3,0 C 4,7 C 3,2 km/h
07.12.2009 14:00 4,8 C 88 % 1017,8 hPa 0,0 l/m 0,3 km/h N 3,0 C 4,8 C 3,6 km/h
07.12.2009 15:00 4,8 C 88 % 1018,0 hPa 0,0 l/m 0,2 km/h N 3,0 C 4,8 C 2,4 km/h
07.12.2009 16:00 4,8 C 88 % 1018,1 hPa 0,0 l/m 0,3 km/h N 3,0 C 4,8 C 2,8 km/h
07.12.2009 17:00 4,5 C 88 % 1018,0 hPa 0,0 l/m 0,7 km/h N 2,7 C 4,5 C 6,4 km/h
07.12.2009 18:00 3,8 C 89 % 1017,8 hPa 0,0 l/m 0,3 km/h N 2,1 C 3,8 C 3,6 km/h
07.12.2009 19:00 3,8 C 90 % 1017,6 hPa 0,0 l/m 0,3 km/h S 2,3 C 3,8 C 4,0 km/h
07.12.2009 20:00 3,9 C 90 % 1017,3 hPa 0,0 l/m 1,0 km/h N 2,4 C 3,9 C 6,8 km/h
07.12.2009 21:00 3,9 C 90 % 1016,6 hPa 0,0 l/m 0,6 km/h N 2,4 C 3,9 C 6,4 km/h
07.12.2009 22:00 3,9 C 91 % 1015,9 hPa 0,0 l/m 0,5 km/h N 2,4 C 3,9 C 6,4 km/h
07.12.2009 23:00 3,6 C 91 % 1015,3 hPa 0,0 l/m 1,0 km/h SO 2,2 C 3,6 C 5,6 km/h
08.12.2009 00:00 2,8 C 91 % 1014,9 hPa 0,0 l/m 1,6 km/h SO 1,5 C 2,8 C 8,0 km/h
08.12.2009 01:00 2,8 C 92 % 1014,1 hPa 0,0 l/m 1,5 km/h O 1,6 C 2,8 C 6,8 km/h
08.12.2009 02:00 3,3 C 92 % 1013,1 hPa 0,0 l/m 1,9 km/h SO 2,1 C 3,3 C 9,6 km/h
08.12.2009 03:00 3,6 C 92 % 1012,3 hPa 0,0 l/m 1,8 km/h SO 2,4 C 3,6 C 9,3 km/h
08.12.2009 04:00 3,7 C 92 % 1011,9 hPa 0,0 l/m 1,6 km/h O 2,5 C 3,7 C 8,9 km/h
08.12.2009 05:00 3,8 C 92 % 1011,6 hPa 0,0 l/m 1,4 km/h O 2,6 C 3,8 C 8,0 km/h
08.12.2009 06:00 3,8 C 92 % 1011,1 hPa 0,0 l/m 1,5 km/h O 2,6 C 3,8 C 6,8 km/h
08.12.2009 07:00 3,7 C 93 % 1010,8 hPa 0,0 l/m 1,4 km/h SO 2,7 C 3,7 C 7,2 km/h
08.12.2009 08:00 3,8 C 93 % 1010,9 hPa 0,0 l/m 0,1 km/h N 2,7 C 3,8 C 2,0 km/h
08.12.2009 09:00 4,1 C 93 % 1010,9 hPa 0,0 l/m 0,0 km/h N 3,0 C 4,1 C 1,6 km/h
08.12.2009 10:00 4,2 C 93 % 1011,7 hPa 0,0 l/m 0,8 km/h W-NW 3,2 C 4,2 C 3,6 km/h
08.12.2009 11:00 4,4 C 93 % 1011,8 hPa 0,0 l/m 0,7 km/h N-NW 3,3 C 4,4 C 3,6 km/h
08.12.2009 12:00 4,8 C 92 % 1011,6 hPa 0,0 l/m 1,5 km/h NO 3,6 C 4,8 C 5,2 km/h
08.12.2009 13:00 5,9 C 92 % 1011,3 hPa 0,0 l/m 4,3 km/h W 4,7 C 5,6 C 12,9 km/h
08.12.2009 14:00 7,2 C 87 % 1011,9 hPa 0,3 l/m 7,8 km/h W 5,2 C 6,1 C 24,1 km/h
08.12.2009 15:00 6,8 C 84 % 1012,1 hPa 0,8 l/m 10,4 km/h W 4,3 C 3,9 C 27,4 km/h
08.12.2009 16:00 6,7 C 82 % 1012,5 hPa 0,8 l/m 13,7 km/h W 3,9 C 1,8 C 35,8 km/h
08.12.2009 17:00 6,7 C 82 % 1012,7 hPa 1,0 l/m 15,0 km/h W-SW 3,8 C 1,2 C 35,0 km/h
08.12.2009 18:00 6,8 C 82 % 1013,2 hPa 0,8 l/m 13,3 km/h NW 3,8 C 2,1 C 34,6 km/h
08.12.2009 19:00 6,8 C 81 % 1013,8 hPa 0,3 l/m 11,1 km/h W 3,7 C 3,4 C 30,6 km/h
08.12.2009 20:00 6,7 C 81 % 1014,3 hPa 0,3 l/m 12,6 km/h NW 3,6 C 2,4 C 29,0 km/h
08.12.2009 21:00 6,4 C 82 % 1014,8 hPa 0,3 l/m 11,5 km/h W-NW 3,4 C 2,7 C 31,4 km/h
08.12.2009 22:00 6,2 C 83 % 1015,3 hPa 0,0 l/m 12,2 km/h NW 3,5 C 2,0 C 28,6 km/h
08.12.2009 23:00 6,1 C 83 % 1015,7 hPa 0,0 l/m 10,2 km/h W-NW 3,5 C 3,2 C 25,3 km/h
09.12.2009 00:00 6,1 C 82 % 1015,8 hPa 0,0 l/m 13,7 km/h NW 3,3 C 1,1 C 31,4 km/h
09.12.2009 01:00 5,8 C 84 % 1016,3 hPa 0,0 l/m 13,2 km/h W-SW 3,2 C 1,0 C 31,0 km/h
09.12.2009 02:00 5,5 C 85 % 1016,9 hPa 0,0 l/m 11,6 km/h W-NW 3,2 C 1,5 C 28,1 km/h
09.12.2009 03:00 5,4 C 85 % 1017,1 hPa 0,0 l/m 12,0 km/h W 3,0 C 1,2 C 26,5 km/h
09.12.2009 04:00 5,3 C 86 % 1017,6 hPa 1,0 l/m 12,6 km/h NW 3,0 C 0,7 C 29,8 km/h
09.12.2009 05:00 5,2 C 86 % 1018,3 hPa 2,1 l/m 12,3 km/h NW 3,0 C 0,8 C 26,9 km/h
09.12.2009 06:00 5,1 C 87 % 1019,1 hPa 1,3 l/m 12,3 km/h NW 3,0 C 0,7 C 30,2 km/h
09.12.2009 07:00 5,1 C 86 % 1019,7 hPa 0,0 l/m 11,2 km/h W-NW 2,9 C 1,3 C 26,6 km/h
09.12.2009 08:00 5,4 C 85 % 1020,2 hPa 0,5 l/m 13,3 km/h NW 3,0 C 0,5 C 28,2 km/h
09.12.2009 09:00 5,6 C 84 % 1020,8 hPa 0,5 l/m 12,1 km/h NW 3,1 C 1,3 C 27,4 km/h
09.12.2009 10:00 5,7 C 83 % 1021,8 hPa 0,3 l/m 13,7 km/h NW 3,0 C 0,6 C 32,2 km/h
09.12.2009 11:00 6,0 C 83 % 1021,8 hPa 0,8 l/m 12,1 km/h NW 3,3 C 1,9 C 30,6 km/h
09.12.2009 12:00 6,6 C 80 % 1022,0 hPa 0,3 l/m 10,3 km/h NW 3,4 C 3,7 C 20,9 km/h
09.12.2009 13:00 6,3 C 81 % 1022,2 hPa 1,0 l/m 11,4 km/h W-NW 3,2 C 2,7 C 28,5 km/h
09.12.2009 14:00 5,8 C 83 % 1022,8 hPa 1,0 l/m 12,0 km/h W-NW 3,2 C 1,8 C 28,6 km/h
09.12.2009 15:00 5,6 C 85 % 1023,5 hPa 0,5 l/m 9,9 km/h N-NW 3,3 C 2,8 C 22,5 km/h
09.12.2009 16:00 5,4 C 87 % 1024,2 hPa 1,3 l/m 8,2 km/h NW 3,4 C 3,9 C 23,3 km/h
09.12.2009 17:00 5,4 C 88 % 1024,7 hPa 0,3 l/m 9,1 km/h NW 3,5 C 3,2 C 22,5 km/h
09.12.2009 18:00 5,6 C 87 % 1025,3 hPa 0,3 l/m 8,9 km/h NW 3,7 C 3,6 C 22,9 km/h
09.12.2009 19:00 6,1 C 84 % 1025,8 hPa 0,0 l/m 8,1 km/h NW 3,6 C 4,7 C 21,7 km/h
09.12.2009 20:00 6,3 C 81 % 1026,0 hPa 0,0 l/m 7,4 km/h NW 3,3 C 5,4 C 20,5 km/h
09.12.2009 21:00 6,5 C 80 % 1026,2 hPa 0,0 l/m 6,5 km/h NW 3,3 C 6,1 C 18,1 km/h
09.12.2009 22:00 6,5 C 80 % 1026,6 hPa 0,0 l/m 8,6 km/h W 3,3 C 4,7 C 21,7 km/h
09.12.2009 23:00 6,4 C 81 % 1027,0 hPa 0,0 l/m 8,3 km/h NW 3,3 C 4,9 C 18,1 km/h
10.12.2009 00:00 6,4 C 81 % 1027,1 hPa 0,0 l/m 7,6 km/h NW 3,3 C 5,3 C 16,5 km/h
10.12.2009 01:00 6,3 C 81 % 1027,0 hPa 0,0 l/m 7,0 km/h NW 3,2 C 5,8 C 17,3 km/h
10.12.2009 02:00 5,9 C 81 % 1026,9 hPa 0,0 l/m 5,6 km/h NW 2,9 C 5,9 C 12,5 km/h
10.12.2009 03:00 5,5 C 82 % 1026,7 hPa 0,0 l/m 4,7 km/h W-NW 2,7 C 5,5 C 10,9 km/h
10.12.2009 04:00 5,5 C 82 % 1026,5 hPa 0,0 l/m 4,8 km/h W-NW 2,7 C 5,5 C 12,9 km/h
10.12.2009 05:00 5,7 C 83 % 1026,6 hPa 0,0 l/m 4,0 km/h NW 2,9 C 5,7 C 7,6 km/h
10.12.2009 06:00 5,5 C 83 % 1026,2 hPa 0,0 l/m 2,1 km/h NW 2,8 C 5,5 C 6,8 km/h
10.12.2009 07:00 5,6 C 82 % 1026,2 hPa 0,0 l/m 2,1 km/h NW 2,8 C 5,6 C 6,4 km/h
10.12.2009 08:00 5,7 C 81 % 1026,1 hPa 0,0 l/m 2,8 km/h NW 2,6 C 5,7 C 7,2 km/h
10.12.2009 09:00 5,8 C 79 % 1025,6 hPa 0,0 l/m 2,3 km/h NO 2,5 C 5,8 C 4,4 km/h
10.12.2009 10:00 6,5 C 76 % 1025,1 hPa 0,0 l/m 2,3 km/h N-NO 2,6 C 6,5 C 5,6 km/h
10.12.2009 11:00 8,1 C 68 % 1024,3 hPa 0,0 l/m 4,5 km/h NW 2,4 C 8,1 C 9,7 km/h
10.12.2009 12:00 9,0 C 60 % 1023,2 hPa 0,0 l/m 4,7 km/h NW 1,7 C 9,0 C 9,7 km/h
10.12.2009 13:00 9,2 C 58 % 1022,1 hPa 0,0 l/m 2,2 km/h O-SO 1,5 C 9,2 C 7,2 km/h
10.12.2009 14:00 7,9 C 74 % 1021,1 hPa 0,0 l/m 1,3 km/h S-SO 3,5 C 7,9 C 5,2 km/h
10.12.2009 15:00 7,7 C 74 % 1020,7 hPa 0,0 l/m 0,1 km/h N 3,4 C 7,7 C 1,6 km/h
10.12.2009 16:00 7,1 C 78 % 1020,3 hPa 0,0 l/m 0,1 km/h N 3,5 C 7,1 C 0,8 km/h
10.12.2009 17:00 6,6 C 81 % 1020,3 hPa 1,0 l/m 0,9 km/h NW 3,6 C 6,6 C 5,2 km/h
10.12.2009 18:00 6,0 C 85 % 1019,6 hPa 0,5 l/m 0,4 km/h W-SW 3,7 C 6,0 C 4,0 km/h
10.12.2009 19:00 6,8 C 86 % 1019,2 hPa 0,0 l/m 4,3 km/h W 4,5 C 6,8 C 15,7 km/h
10.12.2009 20:00 7,2 C 81 % 1019,0 hPa 0,0 l/m 5,5 km/h W-SW 4,3 C 7,0 C 18,1 km/h
10.12.2009 21:00 7,8 C 82 % 1018,0 hPa 0,5 l/m 8,6 km/h W 4,9 C 6,1 C 25,8 km/h
10.12.2009 22:00 8,0 C 79 % 1017,8 hPa 0,3 l/m 13,4 km/h W 4,6 C 3,5 C 37,0 km/h
10.12.2009 23:00 7,7 C 82 % 1017,7 hPa 1,0 l/m 11,9 km/h W 4,8 C 3,9 C 31,0 km/h
11.12.2009 00:00 7,7 C 81 % 1017,1 hPa 0,3 l/m 11,8 km/h W 4,7 C 4,0 C 31,0 km/h
11.12.2009 01:00 7,4 C 82 % 1017,0 hPa 1,8 l/m 10,9 km/h NW 4,5 C 4,2 C 28,6 km/h
11.12.2009 02:00 7,2 C 82 % 1016,6 hPa 0,5 l/m 11,3 km/h W-NW 4,3 C 3,8 C 31,8 km/h
11.12.2009 03:00 7,0 C 79 % 1016,3 hPa 0,0 l/m 14,8 km/h W 3,5 C 1,6 C 33,8 km/h
11.12.2009 04:00 6,3 C 80 % 1016,5 hPa 0,5 l/m 12,0 km/h NW 3,2 C 2,4 C 27,3 km/h
11.12.2009 05:00 5,8 C 84 % 1016,4 hPa 1,0 l/m 9,9 km/h W-NW 3,3 C 3,1 C 26,1 km/h
11.12.2009 06:00 5,8 C 84 % 1016,3 hPa 0,5 l/m 10,5 km/h NW 3,2 C 2,6 C 28,2 km/h
11.12.2009 07:00 5,5 C 84 % 1016,4 hPa 0,3 l/m 10,3 km/h W-NW 2,9 C 2,5 C 26,1 km/h
11.12.2009 08:00 5,6 C 83 % 1016,6 hPa 0,0 l/m 7,6 km/h NW 3,0 C 4,6 C 20,5 km/h
11.12.2009 09:00 5,9 C 82 % 1016,8 hPa 0,0 l/m 7,1 km/h W 3,1 C 5,4 C 20,1 km/h
11.12.2009 10:00 5,9 C 82 % 1016,7 hPa 0,0 l/m 7,5 km/h NW 3,1 C 5,0 C 21,7 km/h
11.12.2009 11:00 5,9 C 82 % 1016,3 hPa 0,0 l/m 9,1 km/h W 3,1 C 3,8 C 21,4 km/h
11.12.2009 12:00 6,3 C 80 % 1016,1 hPa 0,0 l/m 8,8 km/h W-NW 3,2 C 4,4 C 19,7 km/h
11.12.2009 13:00 6,1 C 80 % 1015,9 hPa 0,0 l/m 6,6 km/h W 2,9 C 5,8 C 17,7 km/h
11.12.2009 14:00 5,7 C 82 % 1015,9 hPa 0,0 l/m 6,3 km/h NW 2,8 C 5,4 C 18,9 km/h
11.12.2009 15:00 5,3 C 83 % 1015,9 hPa 0,0 l/m 6,0 km/h W 2,5 C 5,2 C 18,1 km/h
11.12.2009 16:00 5,1 C 84 % 1016,5 hPa 0,0 l/m 5,0 km/h NW 2,6 C 5,1 C 14,1 km/h
11.12.2009 17:00 4,5 C 86 % 1017,3 hPa 0,8 l/m 4,8 km/h N-NO 2,4 C 4,5 C 13,3 km/h
11.12.2009 18:00 3,6 C 88 % 1018,0 hPa 0,5 l/m 6,1 km/h N 1,8 C 3,3 C 16,5 km/h
11.12.2009 19:00 2,9 C 87 % 1018,5 hPa 0,5 l/m 5,3 km/h N-NW 1,0 C 2,9 C 14,9 km/h
11.12.2009 20:00 2,6 C 88 % 1018,9 hPa 0,5 l/m 5,3 km/h NW 0,8 C 2,6 C 12,5 km/h
11.12.2009 21:00 2,6 C 89 % 1019,0 hPa 0,0 l/m 5,3 km/h NW 0,9 C 2,6 C 12,9 km/h
11.12.2009 22:00 2,8 C 87 % 1019,1 hPa 0,0 l/m 5,9 km/h NW 0,9 C 2,5 C 15,3 km/h
11.12.2009 23:00 2,9 C 85 % 1019,3 hPa 0,0 l/m 7,7 km/h NW 0,5 C 1,7 C 16,9 km/h
12.12.2009 00:00 2,5 C 85 % 1019,4 hPa 0,0 l/m 8,2 km/h NW 0,2 C 0,7 C 20,1 km/h
12.12.2009 01:00 2,3 C 85 % 1019,5 hPa 0,0 l/m 7,6 km/h NW 0,0 C 1,1 C 16,9 km/h
12.12.2009 02:00 2,5 C 81 % 1019,7 hPa 0,0 l/m 7,9 km/h N-NW -0,6 C 1,0 C 18,1 km/h
12.12.2009 03:00 2,5 C 78 % 1019,8 hPa 0,0 l/m 8,1 km/h NW -1,1 C 0,9 C 17,7 km/h
12.12.2009 04:00 2,3 C 76 % 1019,9 hPa 0,0 l/m 6,3 km/h NW -1,4 C 2,0 C 16,1 km/h
12.12.2009 05:00 2,2 C 76 % 1020,2 hPa 0,0 l/m 5,6 km/h NW -1,6 C 2,2 C 12,5 km/h
12.12.2009 06:00 2,1 C 76 % 1020,4 hPa 0,0 l/m 4,9 km/h N-NO -1,6 C 2,1 C 12,1 km/h
12.12.2009 07:00 2,1 C 77 % 1020,8 hPa 0,0 l/m 4,0 km/h N -1,5 C 2,1 C 12,9 km/h
12.12.2009 08:00 2,1 C 77 % 1021,0 hPa 0,0 l/m 5,6 km/h NW -1,5 C 2,1 C 15,7 km/h
12.12.2009 09:00 2,3 C 76 % 1021,1 hPa 0,0 l/m 5,6 km/h N-NW -1,5 C 2,3 C 14,5 km/h
12.12.2009 10:00 2,5 C 74 % 1021,2 hPa 0,0 l/m 5,7 km/h N-NW -1,7 C 2,4 C 15,3 km/h
12.12.2009 11:00 2,7 C 72 % 1021,0 hPa 0,0 l/m 6,4 km/h N-NO -1,9 C 2,4 C 15,7 km/h
12.12.2009 12:00 2,8 C 71 % 1020,7 hPa 0,0 l/m 8,0 km/h N-NW -1,9 C 1,3 C 19,7 km/h
12.12.2009 13:00 2,4 C 77 % 1020,5 hPa 0,0 l/m 8,2 km/h N-NW -1,3 C 0,8 C 18,9 km/h
12.12.2009 14:00 2,2 C 78 % 1020,5 hPa 0,0 l/m 5,0 km/h N-NW -1,3 C 2,2 C 14,9 km/h
12.12.2009 15:00 2,3 C 76 % 1020,5 hPa 0,0 l/m 3,5 km/h N-NW -1,5 C 2,3 C 8,9 km/h
12.12.2009 16:00 2,1 C 72 % 1020,5 hPa 0,0 l/m 5,4 km/h N-NW -2,4 C 2,1 C 14,9 km/h
12.12.2009 17:00 1,9 C 72 % 1020,6 hPa 0,0 l/m 4,3 km/h N-NO -2,6 C 1,9 C 12,9 km/h
12.12.2009 18:00 1,7 C 73 % 1020,6 hPa 0,0 l/m 5,1 km/h N-NO -2,6 C 1,7 C 13,7 km/h
12.12.2009 19:00 1,4 C 74 % 1020,5 hPa 0,0 l/m 3,7 km/h N-NW -2,7 C 1,4 C 10,1 km/h
12.12.2009 20:00 1,3 C 75 % 1020,5 hPa 0,0 l/m 3,8 km/h N -2,6 C 1,3 C 11,7 km/h
12.12.2009 21:00 1,0 C 74 % 1020,5 hPa 0,0 l/m 4,3 km/h N-NO -3,1 C 1,0 C 11,3 km/h
12.12.2009 22:00 0,8 C 70 % 1020,4 hPa 0,0 l/m 4,2 km/h N-NW -4,0 C 0,8 C 14,9 km/h
12.12.2009 23:00 0,7 C 69 % 1020,3 hPa 0,0 l/m 4,9 km/h N -4,3 C 0,7 C 15,3 km/h
13.12.2009 00:00 0,4 C 68 % 1020,3 hPa 0,0 l/m 3,5 km/h N -4,7 C 0,4 C 10,1 km/h
13.12.2009 01:00 0,3 C 69 % 1020,1 hPa 0,0 l/m 3,5 km/h NW -4,8 C 0,3 C 10,1 km/h
13.12.2009 02:00 -0,0 C 70 % 1020,2 hPa 0,0 l/m 6,0 km/h NO -4,9 C -0,1 C 16,9 km/h
13.12.2009 03:00 -0,4 C 70 % 1020,1 hPa 0,0 l/m 4,3 km/h N-NW -5,2 C -0,4 C 11,3 km/h
13.12.2009 04:00 -0,7 C 69 % 1019,8 hPa 0,0 l/m 5,4 km/h NO -5,6 C -0,8 C 14,5 km/h
13.12.2009 05:00 -0,9 C 70 % 1019,6 hPa 0,0 l/m 4,5 km/h N-NO -5,7 C -0,9 C 12,5 km/h
13.12.2009 06:00 -1,0 C 70 % 1019,9 hPa 0,0 l/m 4,5 km/h NO -5,8 C -1,0 C 14,1 km/h
13.12.2009 07:00 -1,2 C 69 % 1020,3 hPa 0,0 l/m 5,3 km/h NO -6,2 C -1,2 C 15,7 km/h
13.12.2009 08:00 -1,4 C 70 % 1021,0 hPa 0,0 l/m 5,6 km/h N-NO -6,3 C -1,4 C 14,1 km/h
13.12.2009 09:00 -1,7 C 72 % 1021,4 hPa 0,0 l/m 3,7 km/h N -6,0 C -1,7 C 9,7 km/h
13.12.2009 10:00 -1,8 C 77 % 1021,5 hPa 0,0 l/m 3,6 km/h N -5,4 C -1,8 C 10,1 km/h
13.12.2009 11:00 -1,5 C 74 % 1021,3 hPa 0,0 l/m 3,0 km/h NW -5,5 C -1,5 C 9,3 km/h
13.12.2009 12:00 -1,2 C 71 % 1021,0 hPa 0,0 l/m 3,8 km/h N-NW -5,8 C -1,2 C 10,1 km/h
13.12.2009 13:00 -1,2 C 71 % 1020,9 hPa 0,0 l/m 3,2 km/h NO -5,7 C -1,2 C 8,0 km/h
13.12.2009 14:00 -1,2 C 70 % 1020,7 hPa 0,0 l/m 2,5 km/h N -6,0 C -1,2 C 8,0 km/h
13.12.2009 15:00 -1,5 C 74 % 1021,0 hPa 0,0 l/m 2,4 km/h N-NW -5,5 C -1,5 C 7,2 km/h
13.12.2009 16:00 -2,0 C 79 % 1021,4 hPa 0,0 l/m 2,4 km/h NW -5,3 C -2,0 C 6,8 km/h
13.12.2009 17:00 -2,2 C 81 % 1021,4 hPa 0,0 l/m 2,0 km/h NW -5,0 C -2,2 C 5,6 km/h
13.12.2009 18:00 -2,3 C 82 % 1021,5 hPa 0,0 l/m 1,8 km/h NW -4,9 C -2,3 C 5,6 km/h
13.12.2009 19:00 -2,4 C 82 % 1021,5 hPa 0,0 l/m 1,8 km/h NW -5,1 C -2,4 C 5,6 km/h
13.12.2009 20:00 -2,4 C 79 % 1021,8 hPa 0,0 l/m 1,7 km/h NW -5,6 C -2,4 C 5,6 km/h
13.12.2009 21:00 -2,4 C 77 % 1022,2 hPa 0,0 l/m 2,1 km/h NW -5,9 C -2,4 C 7,2 km/h
13.12.2009 22:00 -2,6 C 79 % 1022,6 hPa 0,0 l/m 1,1 km/h W-NW -5,7 C -2,6 C 4,8 km/h
13.12.2009 23:00 -2,7 C 79 % 1022,6 hPa 0,0 l/m 2,0 km/h N-NW -5,9 C -2,7 C 6,0 km/h
Min-Datum _ 13.12.09 10.12.09 08.12.09 - 07.12.09 - 13.12.09 13.12.09 07.12.09
_ Min-Zeit 23:15 13:30 07:30 - 01:30 - 08:15 23:00 01:30
Minimum _ -2,7 C 56 % 1010,7 hPa - 0,0 km/h - -6,3 C -2,7 C 0,0 km/h
Max-Datum _ 10.12.09 07.12.09 10.12.09 09.12.09 08.12.09 - 08.12.09 10.12.09 08.12.09
_ Max-Zeit 13:00 08:15 00:30 05:00 17:45 - 14:00 12:45 18:00
Maximum _ 9,4 C 93 % 1027,2 hPa 2,1 l/m 16,4 km/h
W-SW
- 5,7 C 9,3 C 41,8 km/h
W
Durchschnitt _ 3,8 C 82 % 1019,0 hPa #26,8 l/m 5,5 km/h NW 1,0 C 2,8 C 14,7 km/h